Time;durP1;ratioP1;P1;durP2;ratioP2;P2;SDS_P1;SDS_P2;PMS_P1;PMS_P2;Temp;Humidity;BMP_temperature;BMP_pressure;BME280_temperature;BME280_humidity;BME280_pressure;Samples;Min_cycle;Max_cycle;Signal;HPM_P1;HPM_P2
2022/04/20 00:01:09;;;;;;;;;;;;;;;26.25;33.87;93558.97;5039987;28;7336;-59
2022/04/20 00:03:41;;;;;;;;;;;;;;;26.26;34.36;93557.66;5043824;28;8978;-60
2022/04/20 00:06:09;;;;;;;;;;;;;;;26.24;34.22;93563.72;5045466;28;9079;-60
2022/04/20 00:08:35;;;;;;;;;;;;;;;26.25;34.11;93558.97;5051609;28;7189;-60
2022/04/20 00:11:08;;;;;;;;;;;;;;;26.26;33.73;93560.41;5043820;28;7242;-60
2022/04/20 00:13:48;;;;;;;;;;;;;;;26.24;33.88;93557.47;5041980;28;9071;-60
2022/04/20 00:16:24;;;;;;;;;;;;;;;26.21;34.33;93550.28;5038962;28;9318;-60
2022/04/20 00:18:50;;;;;;;;;;;;;;;26.22;33.65;93549.72;5049263;28;7155;-60
2022/04/20 00:21:22;;;;;;;;;;;;;;;26.22;34.56;93554.50;5047210;28;9175;-60
2022/04/20 00:23:56;;;;;;;;;;;;;;;26.19;34.66;93547.31;5030899;28;9193;-60
2022/04/20 00:26:22;;;;;;;;;;;;;;;26.19;33.93;93548.03;5049760;28;7319;-60
2022/04/20 00:28:56;;;;;;;;;;;;;;;26.19;33.95;93547.31;5035478;28;9582;-60
2022/04/20 00:31:22;;;;;;;;;;;;;;;26.18;34.52;93549.31;5038472;28;7318;-60
2022/04/20 00:33:48;;;;;;;;;;;;;;;26.16;33.82;93547.09;5034583;28;9373;-60
2022/04/20 00:36:18;;;;;;;;;;;;;;;26.19;34.37;93548.03;5045762;28;9010;-60
2022/04/20 00:38:44;;;;;;;;;;;;;;;26.19;34.21;93555.59;5045163;28;9400;-60
2022/04/20 00:41:10;;;;;;;;;;;;;;;26.16;34.41;93549.13;5030523;28;8841;-60
2022/04/20 00:43:37;;;;;;;;;;;;;;;26.17;34.41;93548.56;5039155;28;8547;-60
2022/04/20 00:46:11;;;;;;;;;;;;;;;26.18;34.25;93546.56;5031495;28;9070;-60
2022/04/20 00:48:40;;;;;;;;;;;;;;;26.15;33.94;93545.63;5032976;28;8746;-60
2022/04/20 00:51:15;;;;;;;;;;;;;;;26.15;34.14;93550.38;5047042;28;6981;-60
2022/04/20 00:53:43;;;;;;;;;;;;;;;26.14;34.50;93541.38;5036530;28;7143;-60
2022/04/20 00:56:09;;;;;;;;;;;;;;;26.13;34.73;93539.91;5044824;28;9534;-60
2022/04/20 00:58:40;;;;;;;;;;;;;;;26.12;34.20;93546.69;5041995;28;7077;-60
2022/04/20 01:01:14;;;;;;;;;;;;;;;26.14;33.92;93552.41;5050635;28;7630;-60
2022/04/20 01:03:52;;;;;;;;;;;;;;;26.11;34.41;93542.47;5033887;28;9383;-60
2022/04/20 01:06:19;;;;;;;;;;;;;;;26.12;34.53;93543.19;5046164;28;7341;-60
2022/04/20 01:08:45;;;;;;;;;;;;;;;26.12;33.70;93541.16;5040255;28;6985;-60
2022/04/20 01:11:18;;;;;;;;;;;;;;;26.12;34.62;93546.69;5046151;28;9087;-60
2022/04/20 01:13:44;;;;;;;;;;;;;;;26.10;34.70;93540.97;5053005;28;8266;-60
2022/04/20 01:16:11;;;;;;;;;;;;;;;26.10;34.03;93540.97;5033236;28;7617;-60
2022/04/20 01:18:46;;;;;;;;;;;;;;;26.06;34.65;93532.25;5041605;28;9052;-60
2022/04/20 01:21:13;;;;;;;;;;;;;;;26.08;33.93;93534.47;5046733;28;6986;-60
2022/04/20 01:23:39;;;;;;;;;;;;;;;26.06;34.01;93537.78;5037835;28;9086;-60
2022/04/20 01:26:07;;;;;;;;;;;;;;;26.08;34.48;93534.47;5040486;28;7099;-60
2022/04/20 01:28:35;;;;;;;;;;;;;;;26.05;34.59;93533.53;5039352;28;7198;-60
2022/04/20 01:31:04;;;;;;;;;;;;;;;26.06;33.83;93532.25;5029395;28;7432;-60
2022/04/20 01:33:30;;;;;;;;;;;;;;;26.05;33.77;93530.78;5038671;28;7175;-60
2022/04/20 01:35:59;;;;;;;;;;;;;;;26.05;34.65;93530.03;5046901;28;7932;-60
2022/04/20 01:38:26;;;;;;;;;;;;;;;26.04;34.56;93526.53;5028111;28;7195;-60
2022/04/20 01:40:52;;;;;;;;;;;;;;;26.04;34.27;93531.31;5030822;28;7446;-60
2022/04/20 01:43:18;;;;;;;;;;;;;;;26.02;34.75;93529.09;5043646;28;9065;-60
2022/04/20 01:45:44;;;;;;;;;;;;;;;26.02;33.85;93529.09;5054894;28;6968;-60
2022/04/20 01:48:11;;;;;;;;;;;;;;;26.01;34.87;93524.84;5054116;28;9097;-60
2022/04/20 01:51:46;;;;;;;;;;;;;;;26.01;34.05;93535.16;5054405;28;8713;-60
2022/04/20 01:53:30;;;;;;;;;;;;;;;26.00;33.94;93526.13;5041589;28;7329;-60
2022/04/20 01:55:56;;;;;;;;;;;;;;;26.00;34.77;93531.66;5032004;28;9371;-60
2022/04/20 01:58:22;;;;;;;;;;;;;;;25.97;33.98;93538.22;5036136;28;7070;-60
2022/04/20 02:00:49;;;;;;;;;;;;;;;25.97;34.51;93529.94;5047135;28;9029;-60
2022/04/20 02:03:28;;;;;;;;;;;;;;;25.95;34.57;93524.22;5047410;28;9103;-60
2022/04/20 02:05:55;;;;;;;;;;;;;;;25.96;34.93;93525.72;5036382;28;7669;-60
2022/04/20 02:08:32;;;;;;;;;;;;;;;25.96;34.40;93522.22;5054836;28;7373;-60
2022/04/20 02:11:14;;;;;;;;;;;;;;;25.96;34.04;93527.72;5039073;28;7233;-60
2022/04/20 02:13:41;;;;;;;;;;;;;;;25.94;34.42;93530.28;5040187;28;9117;-60
2022/04/20 02:16:17;;;;;;;;;;;;;;;25.93;34.66;93524.03;5047976;28;7263;-60
2022/04/20 02:18:47;;;;;;;;;;;;;;;25.93;34.79;93529.53;5044938;28;9070;-60
2022/04/20 02:21:21;;;;;;;;;;;;;;;25.91;34.64;93525.81;5018003;28;6971;-60
2022/04/20 02:23:50;;;;;;;;;;;;;;;25.91;34.74;93531.34;5042516;28;7090;-60
2022/04/20 02:26:37;;;;;;;;;;;;;;;25.90;34.18;93536.09;5031355;28;9403;-60
2022/04/20 02:29:12;;;;;;;;;;;;;;;25.90;34.72;93536.09;5050246;28;7226;-60
2022/04/20 02:31:38;;;;;;;;;;;;;;;25.89;34.26;93534.63;5046652;28;7215;-60
2022/04/20 02:34:04;;;;;;;;;;;;;;;25.89;34.28;93531.13;5027357;28;7242;-60
2022/04/20 02:36:31;;;;;;;;;;;;;;;25.88;34.41;93533.13;5034115;28;9181;-60
2022/04/20 02:38:57;;;;;;;;;;;;;;;25.88;34.17;93537.94;5044744;28;7434;-60
2022/04/20 02:41:26;;;;;;;;;;;;;;;25.85;34.69;93536.22;5046137;28;8783;-60
2022/04/20 02:43:52;;;;;;;;;;;;;;;25.87;34.56;93530.94;5031857;28;9517;-60
2022/04/20 02:46:22;;;;;;;;;;;;;;;25.84;34.58;93526.47;5029139;28;8367;-60
2022/04/20 02:48:50;;;;;;;;;;;;;;;25.81;34.83;93522.78;5043824;28;7029;-61
2022/04/20 02:51:16;;;;;;;;;;;;;;;25.84;34.16;93524.47;5042037;28;7270;-60
2022/04/20 02:53:42;;;;;;;;;;;;;;;25.83;34.46;93523.00;5040265;28;7059;-60
2022/04/20 02:56:08;;;;;;;;;;;;;;;25.82;34.54;93524.25;5031629;28;8846;-60
2022/04/20 02:58:36;;;;;;;;;;;;;;;25.82;34.55;93523.50;5044926;28;9036;-60
2022/04/20 03:01:03;;;;;;;;;;;;;;;25.81;34.79;93522.78;5026489;28;9128;-60
2022/04/20 03:03:32;;;;;;;;;;;;;;;25.79;34.86;93527.34;5035266;28;7333;-60
2022/04/20 03:05:58;;;;;;;;;;;;;;;25.78;34.54;93529.34;5039157;28;7835;-61
2022/04/20 03:08:24;;;;;;;;;;;;;;;25.80;34.45;93531.56;5025634;28;7229;-61
2022/04/20 03:10:53;;;;;;;;;;;;;;;25.78;34.16;93526.59;5028099;28;9183;-60
2022/04/20 03:13:22;;;;;;;;;;;;;;;25.79;34.87;93528.09;5036107;28;7553;-60
2022/04/20 03:15:50;;;;;;;;;;;;;;;25.77;35.01;93530.66;5030896;28;7335;-60
2022/04/20 03:18:18;;;;;;;;;;;;;;;25.77;33.93;93536.16;5035034;28;8149;-61
2022/04/20 03:20:51;;;;;;;;;;;;;;;25.76;34.81;93534.66;5032838;28;7508;-61
2022/04/20 03:23:24;;;;;;;;;;;;;;;25.75;34.51;93532.44;5039815;28;7224;-61
2022/04/20 03:26:13;;;;;;;;;;;;;;;25.75;34.10;93529.69;5042195;28;7928;-60
2022/04/20 03:28:43;;;;;;;;;;;;;;;25.74;34.89;93537.22;5048277;28;9118;-60
2022/04/20 03:31:09;;;;;;;;;;;;;;;25.74;34.75;93537.22;5047459;28;9212;-60
2022/04/20 03:33:36;;;;;;;;;;;;;;;25.73;34.93;93532.97;5047535;28;7437;-60
2022/04/20 03:36:07;;;;;;;;;;;;;;;25.72;34.38;93534.25;5047030;28;7263;-61
2022/04/20 03:38:36;;;;;;;;;;;;;;;25.71;34.55;93535.50;5046755;28;7188;-60
2022/04/20 03:41:05;;;;;;;;;;;;;;;25.70;34.11;93534.03;5048979;28;9334;-60
2022/04/20 03:43:34;;;;;;;;;;;;;;;25.69;34.75;93532.53;5035371;28;9137;-61
2022/04/20 03:46:02;;;;;;;;;;;;;;;25.70;34.69;93530.53;5032450;28;7505;-60
2022/04/20 03:48:50;;;;;;;;;;;;;;;25.70;34.84;93528.53;5031585;28;9180;-60
2022/04/20 03:51:28;;;;;;;;;;;;;;;25.69;34.72;93526.28;5040049;28;9299;-61
2022/04/20 03:54:07;;;;;;;;;;;;;;;25.70;34.90;93530.53;5037221;28;7543;-60
2022/04/20 03:59:23;;;;;;;;;;;;;;;25.67;34.77;93532.34;5038528;28;8984;-60
2022/04/20 04:02:00;;;;;;;;;;;;;;;25.66;34.24;93533.63;5039790;28;7138;-60
2022/04/20 04:04:27;;;;;;;;;;;;;;;25.66;34.39;93530.88;5047514;28;7510;-60
2022/04/20 04:06:59;;;;;;;;;;;;;;;25.66;34.85;93535.63;5032968;28;7108;-61
2022/04/20 04:09:27;;;;;;;;;;;;;;;25.64;34.82;93524.41;5037349;28;6939;-60
2022/04/20 04:11:54;;;;;;;;;;;;;;;25.65;34.86;93521.13;5041374;28;7246;-60
2022/04/20 04:14:20;;;;;;;;;;;;;;;25.64;34.74;93525.16;5036051;28;7226;-60
2022/04/20 04:16:48;;;;;;;;;;;;;;;25.61;34.15;93515.19;5041051;28;7317;-60
2022/04/20 04:19:16;;;;;;;;;;;;;;;25.61;34.42;93526.22;5034607;28;9126;-60
2022/04/20 04:21:44;;;;;;;;;;;;;;;25.63;34.26;93523.66;5040514;28;7367;-60
2022/04/20 04:24:34;;;;;;;;;;;;;;;25.59;34.89;93523.25;5031008;28;7335;-60
2022/04/20 04:26:58;;;;;;;;;;;;;;;25.61;34.82;93520.69;5041601;28;7498;-60
2022/04/20 04:29:25;;;;;;;;;;;;;;;25.60;34.29;93521.25;5033243;28;8978;-60
2022/04/20 04:31:51;;;;;;;;;;;;;;;25.60;34.44;93524.72;5039576;28;7091;-60
2022/04/20 04:34:17;;;;;;;;;;;;;;;25.57;34.35;93523.03;5037221;28;9272;-60
2022/04/20 04:36:43;;;;;;;;;;;;;;;25.58;34.40;93524.50;5041476;28;7266;-60
2022/04/20 04:39:09;;;;;;;;;;;;;;;25.60;34.23;93529.50;5052835;28;9101;-60
2022/04/20 04:41:38;;;;;;;;;;;;;;;25.59;34.65;93523.25;5044206;28;7162;-60
2022/04/20 04:44:06;;;;;;;;;;;;;;;25.60;34.60;93529.50;5028866;28;7458;-60
2022/04/20 04:49:19;;;;;;;;;;;;;;;25.58;34.19;93527.25;5039883;28;7310;-60
2022/04/20 04:51:45;;;;;;;;;;;;;;;25.56;34.38;93524.28;5043525;28;9197;-60
2022/04/20 04:54:11;;;;;;;;;;;;;;;25.57;33.96;93520.28;5042647;28;7752;-60
2022/04/20 04:56:37;;;;;;;;;;;;;;;25.51;33.86;93519.66;5039814;28;7464;-60
2022/04/20 04:59:04;;;;;;;;;;;;;;;25.51;33.51;93533.44;5047002;28;8752;-60
2022/04/20 05:01:35;;;;;;;;;;;;;;;25.50;33.49;93531.94;5044338;28;8700;-60
2022/04/20 05:04:08;;;;;;;;;;;;;;;25.49;33.21;93537.97;5030422;28;9125;-60
2022/04/20 05:06:44;;;;;;;;;;;;;;;25.46;33.39;93523.25;5050976;28;9027;-60
2022/04/20 05:09:44;;;;;;;;;;;;;;;25.49;33.01;93537.97;5037292;28;7227;-60
2022/04/20 05:12:10;;;;;;;;;;;;;;;25.46;32.66;93537.03;4990318;28;9248;-60
2022/04/20 05:14:37;;;;;;;;;;;;;;;25.47;33.46;93538.50;4989155;28;9016;-60
2022/04/20 05:17:04;;;;;;;;;;;;;;;25.43;33.56;93540.81;4969723;28;9057;-60
2022/04/20 05:19:31;;;;;;;;;;;;;;;25.44;33.62;93545.06;4978432;28;9385;-60
2022/04/20 05:21:57;;;;;;;;;;;;;;;25.42;33.26;93536.59;4973368;28;8778;-59
2022/04/20 05:24:23;;;;;;;;;;;;;;;25.45;33.09;93540.31;4972841;28;9055;-60
2022/04/20 05:26:49;;;;;;;;;;;;;;;25.43;33.76;93541.56;4983004;28;7084;-60
2022/04/20 05:29:18;;;;;;;;;;;;;;;25.43;33.33;93538.06;4984529;28;9398;-60
2022/04/20 05:31:44;;;;;;;;;;;;;;;25.43;33.10;93543.56;4983201;28;7083;-59
2022/04/20 05:34:10;;;;;;;;;;;;;;;25.42;33.08;93540.06;4967105;28;9018;-59
2022/04/20 05:42:05;;;;;;;;;;;;;;;25.41;33.15;93543.34;4987817;28;9106;-61
2022/04/20 05:44:31;;;;;;;;;;;;;;;25.40;32.94;93539.84;4972221;28;9459;-61
2022/04/20 05:47:00;;;;;;;;;;;;;;;25.41;32.93;93543.34;4978824;28;6998;-59
2022/04/20 05:49:29;;;;;;;;;;;;;;;25.40;32.97;93544.63;5034320;28;7824;-58
2022/04/20 05:51:56;;;;;;;;;;;;;;;25.38;33.21;93541.66;5042604;28;8800;-59
2022/04/20 05:54:23;;;;;;;;;;;;;;;25.36;33.41;93533.16;5043151;28;7074;-59
2022/04/20 05:56:52;;;;;;;;;;;;;;;25.40;32.60;93539.84;5037754;28;7212;-59
2022/04/20 05:59:37;;;;;;;;;;;;;;;25.38;33.12;93539.63;5042737;28;7126;-59
2022/04/20 06:02:13;;;;;;;;;;;;;;;25.38;32.89;93541.66;5046190;28;7595;-59
2022/04/20 06:04:51;;;;;;;;;;;;;;;25.38;32.87;93541.66;5031689;28;9866;-60
2022/04/20 06:07:18;;;;;;;;;;;;;;;25.39;33.00;93545.88;5049608;28;6998;-60
2022/04/20 06:09:47;;;;;;;;;;;;;;;25.39;32.65;93545.88;5046616;28;9456;-60
2022/04/20 06:12:22;;;;;;;;;;;;;;;25.39;33.55;93535.63;5037306;28;9203;-60
2022/04/20 06:14:48;;;;;;;;;;;;;;;25.40;33.18;93539.13;5040677;28;9379;-59
2022/04/20 06:17:16;;;;;;;;;;;;;;;25.40;33.34;93537.09;5047312;28;9125;-59
2022/04/20 06:19:42;;;;;;;;;;;;;;;25.39;33.19;93532.88;5049230;28;9071;-60
2022/04/20 06:22:10;;;;;;;;;;;;;;;25.37;33.02;93529.91;5038897;28;7223;-60
2022/04/20 06:24:40;;;;;;;;;;;;;;;25.38;33.16;93528.63;5047249;28;7414;-59
2022/04/20 06:27:08;;;;;;;;;;;;;;;25.37;33.10;93523.66;5045901;28;8237;-59
2022/04/20 06:29:45;;;;;;;;;;;;;;;25.39;32.81;93526.63;5049940;28;8967;-59
2022/04/20 06:32:12;;;;;;;;;;;;;;;25.41;33.79;93515.81;5043364;28;7758;-59
2022/04/20 06:34:55;;;;;;;;;;;;;;;25.42;33.39;93504.28;5049214;28;9346;-59
2022/04/20 06:37:23;;;;;;;;;;;;;;;25.45;33.53;93507.28;5045210;28;8961;-60
2022/04/20 06:39:49;;;;;;;;;;;;;;;25.44;33.08;93512.03;5052209;28;9173;-59
2022/04/20 06:42:18;;;;;;;;;;;;;;;25.46;33.30;93514.25;5047292;28;7355;-59
2022/04/20 06:44:45;;;;;;;;;;;;;;;25.46;32.98;93512.25;5046942;28;7361;-60
2022/04/20 06:47:11;;;;;;;;;;;;;;;25.46;33.43;93512.25;5045067;28;9336;-59
2022/04/20 06:49:44;;;;;;;;;;;;;;;25.46;32.85;93515.00;5047457;28;9043;-59
2022/04/20 07:00:41;;;;;;;;;;;;;;;25.43;33.35;93521.56;5033817;28;7347;-59
2022/04/20 07:03:08;;;;;;;;;;;;;;;25.43;33.24;93525.06;5035099;28;9421;-59
2022/04/20 07:05:43;;;;;;;;;;;;;;;25.43;33.97;93525.06;5048892;28;7683;-60
2022/04/20 07:08:11;;;;;;;;;;;;;;;25.43;33.42;93522.31;5029110;28;7342;-60
2022/04/20 07:10:37;;;;;;;;;;;;;;;25.42;33.72;93520.09;5033337;28;8399;-60
2022/04/20 07:13:05;;;;;;;;;;;;;;;25.43;33.74;93524.31;5037973;28;9146;-59
2022/04/20 07:15:33;;;;;;;;;;;;;;;25.40;33.36;93520.56;5037559;28;7415;-60
2022/04/20 07:18:01;;;;;;;;;;;;;;;25.38;33.64;93514.13;5034549;28;7073;-59
2022/04/20 07:20:28;;;;;;;;;;;;;;;25.40;33.52;93517.81;5040418;28;6977;-60
2022/04/20 07:22:57;;;;;;;;;;;;;;;25.37;33.87;93513.38;5040044;28;9126;-60
2022/04/20 07:25:25;;;;;;;;;;;;;;;25.37;33.26;93512.63;5046186;28;9533;-60
2022/04/20 07:27:52;;;;;;;;;;;;;;;25.37;33.63;93510.63;5039713;28;7256;-60
2022/04/20 07:30:19;;;;;;;;;;;;;;;25.39;33.49;93507.34;5052069;28;7607;-60
2022/04/20 07:32:48;;;;;;;;;;;;;;;25.36;33.76;93503.63;5032892;28;9545;-60
2022/04/20 07:35:30;;;;;;;;;;;;;;;25.38;33.81;93511.38;5033644;28;9030;-60
2022/04/20 07:37:57;;;;;;;;;;;;;;;25.38;33.56;93514.84;5033300;28;8911;-60
2022/04/20 07:40:23;;;;;;;;;;;;;;;25.36;33.58;93505.63;5043555;28;7393;-60
2022/04/20 07:42:56;;;;;;;;;;;;;;;25.37;33.83;93502.38;5035501;28;8657;-60
2022/04/20 07:45:26;;;;;;;;;;;;;;;25.37;33.63;93507.88;5038670;28;8140;-60
2022/04/20 07:47:54;;;;;;;;;;;;;;;25.38;33.82;93503.13;5017806;28;7356;-60
2022/04/20 07:50:23;;;;;;;;;;;;;;;25.36;33.66;93503.63;5032274;28;9433;-60
2022/04/20 07:52:51;;;;;;;;;;;;;;;25.35;34.01;93504.91;5037251;28;7087;-60
2022/04/20 07:55:29;;;;;;;;;;;;;;;25.36;34.37;93508.38;5051166;28;9297;-60
2022/04/20 07:57:58;;;;;;;;;;;;;;;25.36;33.77;93506.38;5030193;28;7598;-60
2022/04/20 08:00:27;;;;;;;;;;;;;;;25.35;33.76;93498.66;5041352;28;9119;-60
2022/04/20 08:03:21;;;;;;;;;;;;;;;25.37;33.60;93509.88;5048590;28;7717;-60
2022/04/20 08:05:51;;;;;;;;;;;;;;;25.37;33.87;93507.88;5041037;28;8805;-60
2022/04/20 08:08:17;;;;;;;;;;;;;;;25.38;33.92;93514.84;5038672;28;9457;-60
2022/04/20 08:10:45;;;;;;;;;;;;;;;25.36;34.01;93519.41;5045281;28;8824;-60
2022/04/20 08:16:04;;;;;;;;;;;;;;;25.38;34.65;93511.38;5038913;28;7034;-60
2022/04/20 08:18:37;;;;;;;;;;;;;;;25.41;34.60;93513.06;5049923;28;7280;-60
2022/04/20 08:21:18;;;;;;;;;;;;;;;25.40;34.02;93523.31;5055418;28;7033;-60
2022/04/20 08:23:50;;;;;;;;;;;;;;;25.39;34.23;93523.84;5047878;28;7326;-60
2022/04/20 08:26:51;;;;;;;;;;;;;;;25.43;34.40;93521.56;5034898;28;7700;-59
2022/04/20 08:29:17;;;;;;;;;;;;;;;25.44;34.36;93531.31;4974669;28;9283;-60
2022/04/20 08:31:43;;;;;;;;;;;;;;;25.42;34.41;93520.81;4978238;28;7541;-60
2022/04/20 08:34:09;;;;;;;;;;;;;;;25.46;34.58;93519.75;4969045;28;9150;-60
2022/04/20 08:36:36;;;;;;;;;;;;;;;25.45;34.39;93523.78;5004241;28;7195;-60
2022/04/20 08:39:03;;;;;;;;;;;;;;;25.47;34.02;93515.75;4996536;28;7167;-60
2022/04/20 08:41:29;;;;;;;;;;;;;;;25.47;34.41;93516.47;5007968;28;9045;-60
2022/04/20 08:44:00;;;;;;;;;;;;;;;25.46;33.79;93514.25;4989287;28;7037;-60
2022/04/20 08:46:27;;;;;;;;;;;;;;;25.48;33.75;93515.19;4981758;28;9496;-60
2022/04/20 08:49:02;;;;;;;;;;;;;;;25.49;33.78;93513.19;4979098;28;7030;-60
2022/04/20 08:52:37;;;;;;;;;;;;;;;25.49;34.26;93524.22;4979662;28;9045;-60
2022/04/20 08:54:14;;;;;;;;;;;;;;;25.48;34.33;93509.69;4992377;28;7364;-60
2022/04/20 08:59:38;;;;;;;;;;;;;;;25.49;34.22;93513.19;4998689;28;7038;-60
2022/04/20 09:02:05;;;;;;;;;;;;;;;25.50;34.27;93520.16;4996086;28;8855;-60
2022/04/20 09:04:31;;;;;;;;;;;;;;;25.49;33.50;93527.69;5042348;28;7363;-60
2022/04/20 09:06:57;;;;;;;;;;;;;;;25.49;33.83;93527.69;5044627;28;9196;-60
2022/04/20 09:09:29;;;;;;;;;;;;;;;25.50;33.73;93528.44;5042751;28;9203;-60
2022/04/20 09:11:59;;;;;;;;;;;;;;;25.50;34.11;93525.69;5052376;28;9266;-60
2022/04/20 09:14:30;;;;;;;;;;;;;;;25.49;34.01;93526.97;5045733;28;7524;-60
2022/04/20 09:16:58;;;;;;;;;;;;;;;25.48;33.98;93523.47;5038354;28;7704;-60
2022/04/20 09:19:26;;;;;;;;;;;;;;;25.50;33.63;93520.16;5048137;28;7038;-59
2022/04/20 09:21:55;;;;;;;;;;;;;;;25.49;33.72;93518.72;5045912;28;7146;-60
2022/04/20 09:24:24;;;;;;;;;;;;;;;25.49;33.70;93513.91;5036236;28;7287;-59
2022/04/20 09:27:01;;;;;;;;;;;;;;;25.50;33.50;93509.16;5049366;28;8751;-59
2022/04/20 09:29:29;;;;;;;;;;;;;;;25.48;35.73;93504.19;5046070;28;7058;-60
2022/04/20 09:31:58;;;;;;;;;;;;;;;25.47;34.93;93508.22;5044351;28;9054;-60
2022/04/20 09:34:56;;;;;;;;;;;;;;;25.45;34.95;93502.50;5043458;28;7280;-60
2022/04/20 09:37:23;;;;;;;;;;;;;;;25.46;34.89;93503.25;5034746;28;7275;-60
2022/04/20 09:39:51;;;;;;;;;;;;;;;25.45;34.86;93504.53;5047337;28;9713;-60
2022/04/20 09:42:19;;;;;;;;;;;;;;;25.44;34.32;93503.78;5036685;28;8660;-60
2022/04/20 09:45:00;;;;;;;;;;;;;;;25.46;34.38;93503.97;5038265;28;8243;-60
2022/04/20 09:50:46;;;;;;;;;;;;;;;25.45;34.51;93510.75;4996112;28;9477;-60
2022/04/20 09:53:17;;;;;;;;;;;;;;;25.47;34.00;93510.25;5000058;28;7131;-60
2022/04/20 09:55:45;;;;;;;;;;;;;;;25.47;33.60;93505.44;5002922;28;7075;-60
2022/04/20 09:58:20;;;;;;;;;;;;;;;25.47;34.35;93502.69;4988690;28;9355;-59
2022/04/20 10:00:52;;;;;;;;;;;;;;;25.45;34.11;93496.25;4998997;28;7221;-60
2022/04/20 10:03:39;;;;;;;;;;;;;;;25.46;34.46;93497.72;5001237;28;7264;-60
2022/04/20 10:06:26;;;;;;;;;;;;;;;25.48;34.09;93497.94;5006949;28;9070;-60
2022/04/20 10:09:03;;;;;;;;;;;;;;;25.47;34.51;93499.94;4987189;28;8024;-60
2022/04/20 10:11:36;;;;;;;;;;;;;;;25.49;34.19;93502.91;4986310;28;7630;-60
2022/04/20 10:17:06;;;;;;;;;;;;;;;25.48;34.41;93495.94;5006044;28;7459;-60
2022/04/20 10:19:36;;;;;;;;;;;;;;;25.49;34.17;93497.41;4979858;28;7520;-60
2022/04/20 10:22:05;;;;;;;;;;;;;;;25.50;34.25;93501.66;4988838;28;9118;-60
2022/04/20 10:24:38;;;;;;;;;;;;;;;25.46;34.02;93487.47;4985557;28;7417;-60
2022/04/20 10:27:23;;;;;;;;;;;;;;;25.47;34.38;93486.19;5001779;28;7257;-60
2022/04/20 10:30:03;;;;;;;;;;;;;;;25.48;34.15;93495.94;5030398;28;7212;-59
2022/04/20 10:32:49;;;;;;;;;;;;;;;25.50;33.99;93493.38;5039215;28;7317;-60
2022/04/20 10:35:24;;;;;;;;;;;;;;;25.51;33.83;93494.13;5053724;28;7213;-60
2022/04/20 10:38:16;;;;;;;;;;;;;;;25.50;34.24;93489.88;5019190;28;370458;-60
2022/04/20 10:41:21;;;;;;;;;;;;;;;25.50;34.31;93479.63;5041754;28;7172;-59
2022/04/20 10:44:04;;;;;;;;;;;;;;;25.50;33.91;93482.38;5030719;28;7269;-60
2022/04/20 10:46:30;;;;;;;;;;;;;;;25.49;33.78;93474.66;5033756;28;7079;-60
2022/04/20 10:49:07;;;;;;;;;;;;;;;25.49;33.78;93469.88;5017629;28;9086;-60
2022/04/20 10:51:46;;;;;;;;;;;;;;;25.51;34.07;93464.59;5050912;28;7218;-60
2022/04/20 10:54:21;;;;;;;;;;;;;;;25.51;33.79;93467.34;5048076;28;9212;-60
2022/04/20 10:56:51;;;;;;;;;;;;;;;25.51;33.41;93467.34;5046461;28;8593;-60
2022/04/20 10:59:20;;;;;;;;;;;;;;;25.54;33.57;93471.78;5047570;28;8697;-59
2022/04/20 11:02:02;;;;;;;;;;;;;;;25.54;33.26;93463.50;5041364;28;7652;-60
2022/04/20 11:04:39;;;;;;;;;;;;;;;25.49;33.17;93466.41;5041497;28;7194;-60
2022/04/20 11:07:08;;;;;;;;;;;;;;;25.58;32.32;93466.69;5057232;28;7248;-59
2022/04/20 11:09:52;;;;;;;;;;;;;;;25.71;32.78;93452.88;5044400;28;7058;-59
2022/04/20 11:18:42;;;;;;;;;;;;;;;25.85;32.26;93457.09;5014804;28;9141;-59
2022/04/20 11:21:12;;;;;;;;;;;;;;;25.82;32.19;93463.66;4988068;28;7274;-59
2022/04/20 11:23:52;;;;;;;;;;;;;;;25.81;31.79;93459.44;5006889;28;7283;-59
2022/04/20 11:26:58;;;;;;;;;;;;;;;25.80;32.58;93454.44;5004338;28;9087;-59
2022/04/20 11:29:29;;;;;;;;;;;;;;;25.75;32.38;93458.78;5009756;28;7485;-61
2022/04/20 11:32:23;;;;;;;;;;;;;;;25.76;32.45;93454.03;4996813;28;7218;-60
2022/04/20 11:35:11;;;;;;;;;;;;;;;25.74;31.77;93449.06;4968569;28;6880;-61
2022/04/20 11:37:39;;;;;;;;;;;;;;;25.73;32.16;93452.38;4971627;28;9714;-60
2022/04/20 11:40:12;;;;;;;;;;;;;;;25.73;32.22;93441.34;4970966;28;7310;-60
2022/04/20 11:42:39;;;;;;;;;;;;;;;25.74;32.46;93449.06;4983483;28;9413;-60
2022/04/20 11:45:06;;;;;;;;;;;;;;;25.74;33.14;93449.06;4972905;28;7943;-60
2022/04/20 11:47:42;;;;;;;;;;;;;;;25.75;32.86;93456.03;4971615;28;7261;-60
2022/04/20 11:50:11;;;;;;;;;;;;;;;25.75;32.32;93452.56;4960357;28;8478;-60
2022/04/20 11:52:59;;;;;;;;;;;;;;;25.76;32.15;93443.75;5000913;28;8299;-61
2022/04/20 11:55:26;;;;;;;;;;;;;;;25.77;32.07;93450.03;4992192;28;6988;-61
2022/04/20 11:58:10;;;;;;;;;;;;;;;25.77;32.54;93448.00;5004904;28;8600;-60
2022/04/20 12:00:36;;;;;;;;;;;;;;;25.77;32.77;93439.75;5010639;28;9123;-60
2022/04/20 12:03:17;;;;;;;;;;;;;;;25.80;32.53;93435.91;5005238;28;7270;-60
2022/04/20 12:05:43;;;;;;;;;;;;;;;25.80;32.80;93435.91;5005419;28;7702;-60
2022/04/20 12:08:23;;;;;;;;;;;;;;;25.79;32.41;93430.94;5020707;28;7294;-60
2022/04/20 12:10:50;;;;;;;;;;;;;;;25.81;32.58;93431.16;5004695;28;8209;-60
2022/04/20 12:13:29;;;;;;;;;;;;;;;25.83;33.26;93442.38;5042060;28;8352;-60
2022/04/20 12:16:03;;;;;;;;;;;;;;;25.82;33.12;93440.88;5040199;28;8831;-60
2022/04/20 12:18:36;;;;;;;;;;;;;;;25.79;32.82;93431.69;5031792;28;9580;-60
2022/04/20 12:24:43;;;;;;;;;;;;;;;25.86;32.40;93438.56;5030655;28;6968;-60
2022/04/20 12:27:32;;;;;;;;;;;;;;;25.88;32.53;93438.75;4965166;28;7851;-61
2022/04/20 12:29:58;;;;;;;;;;;;;;;25.88;32.75;93436.72;4970633;28;7743;-60
2022/04/20 12:32:31;;;;;;;;;;;;;;;25.91;32.85;93438.41;4982482;28;7705;-60
2022/04/20 12:35:01;;;;;;;;;;;;;;;25.91;32.17;93443.19;4982167;28;9045;-60
2022/04/20 12:37:29;;;;;;;;;;;;;;;25.93;32.41;93435.84;4982981;28;10181;-60
2022/04/20 12:40:20;;;;;;;;;;;;;;;25.91;32.88;93432.91;4967185;28;8664;-61
2022/04/20 12:42:59;;;;;;;;;;;;;;;25.89;33.18;93442.97;4975567;28;7227;-61
2022/04/20 12:45:29;;;;;;;;;;;;;;;25.88;32.93;93444.97;4960246;28;9536;-61
2022/04/20 12:48:03;;;;;;;;;;;;;;;25.92;32.81;93447.44;4967156;28;6997;-60
2022/04/20 12:50:42;;;;;;;;;;;;;;;25.91;32.66;93445.94;4964915;28;7233;-60
2022/04/20 12:53:10;;;;;;;;;;;;;;;25.91;32.55;93438.41;4968618;28;8738;-60
2022/04/20 13:02:08;;;;;;;;;;;;;;;25.96;32.89;93442.31;4989645;28;9177;-60
2022/04/20 13:04:52;;;;;;;;;;;;;;;25.93;32.83;93433.09;5046281;28;9208;-61
2022/04/20 13:07:18;;;;;;;;;;;;;;;25.96;32.68;93440.31;5052825;28;7078;-60
2022/04/20 13:09:46;;;;;;;;;;;;;;;25.94;33.27;93431.84;5036796;28;8826;-60
2022/04/20 13:12:12;;;;;;;;;;;;;;;25.98;33.18;93440.50;5033529;28;7341;-60
2022/04/20 13:14:43;;;;;;;;;;;;;;;25.99;33.55;93433.72;5037123;28;9102;-60
2022/04/20 13:17:18;;;;;;;;;;;;;;;26.00;32.92;93437.22;5043644;28;7073;-60
2022/04/20 13:19:55;;;;;;;;;;;;;;;26.03;32.95;93433.41;5033844;28;9725;-60
2022/04/20 13:22:24;;;;;;;;;;;;;;;26.04;32.84;93429.34;5046867;28;7548;-60
2022/04/20 13:27:57;;;;;;;;;;;;;;;26.03;33.03;93438.91;5036231;28;7155;-60
2022/04/20 13:30:25;;;;;;;;;;;;;;;26.04;33.16;93438.38;5046820;28;9271;-60
2022/04/20 13:32:57;;;;;;;;;;;;;;;26.07;33.02;93442.06;5048659;28;9467;-60
2022/04/20 13:35:24;;;;;;;;;;;;;;;26.07;33.48;93437.31;5050423;28;7170;-61
2022/04/20 13:37:50;;;;;;;;;;;;;;;26.10;32.95;93433.47;5049277;28;8746;-61
2022/04/20 13:40:16;;;;;;;;;;;;;;;26.12;32.58;93435.72;5032354;28;7050;-61
2022/04/20 13:42:42;;;;;;;;;;;;;;;26.15;33.51;93440.13;5026253;28;7038;-60
2022/04/20 13:45:11;;;;;;;;;;;;;;;26.16;32.65;93433.38;5033530;28;9486;-60
2022/04/20 13:47:37;;;;;;;;;;;;;;;26.18;32.78;93436.31;5039189;28;9010;-60
2022/04/20 13:50:03;;;;;;;;;;;;;;;26.21;32.65;93440.03;5043631;28;9027;-60
2022/04/20 13:52:31;;;;;;;;;;;;;;;26.22;32.63;93430.47;5050806;28;8936;-60
2022/04/20 13:55:00;;;;;;;;;;;;;;;26.24;33.33;93439.69;5045159;28;9387;-60
2022/04/20 13:57:29;;;;;;;;;;;;;;;26.27;33.52;93437.88;5023682;28;7226;-60
2022/04/20 13:59:59;;;;;;;;;;;;;;;26.27;33.14;93432.34;5038297;28;9022;-61
2022/04/20 14:02:32;;;;;;;;;;;;;;;26.29;33.45;93432.56;5042704;28;8258;-61
2022/04/20 14:05:03;;;;;;;;;;;;;;;26.32;32.95;93431.50;5036900;28;9550;-60
2022/04/20 14:07:34;;;;;;;;;;;;;;;26.32;32.65;93426.69;5047259;28;7197;-60
2022/04/20 14:10:00;;;;;;;;;;;;;;;26.32;32.51;93425.97;5037760;28;9113;-60